createdAt,value
2023-05-18T00:00:05.788Z,1.50
2023-05-18T00:02:32.380Z,1.25
2023-05-18T00:05:02.103Z,1.42
2023-05-18T00:07:33.993Z,1.20
2023-05-18T00:10:01.595Z,1.20
2023-05-18T00:12:28.307Z,1.42
2023-05-18T00:14:54.838Z,1.65
2023-05-18T00:17:21.870Z,1.42
2023-05-18T00:19:50.275Z,1.35
2023-05-18T00:22:19.707Z,1.25
2023-05-18T00:24:46.947Z,1.60
2023-05-18T00:27:13.584Z,1.58
2023-05-18T00:29:40.540Z,1.60
2023-05-18T00:32:07.662Z,1.50
2023-05-18T00:34:34.458Z,1.60
2023-05-18T00:37:01.641Z,1.80
2023-05-18T00:39:28.094Z,1.98
2023-05-18T00:41:54.668Z,1.42
2023-05-18T00:44:21.148Z,1.80
2023-05-18T00:46:47.641Z,1.80
2023-05-18T00:49:14.331Z,1.90
2023-05-18T00:51:41.195Z,1.58
2023-05-18T00:54:08.364Z,1.52
2023-05-18T00:56:37.036Z,1.60
2023-05-18T00:59:03.660Z,1.83
2023-05-18T01:01:36.405Z,1.75
2023-05-18T01:04:04.697Z,1.67
2023-05-18T01:06:41.130Z,1.63
2023-05-18T01:09:10.485Z,1.70
2023-05-18T01:12:00.137Z,1.50
2023-05-18T01:14:49.851Z,1.60
2023-05-18T01:17:40.011Z,1.77
2023-05-18T01:20:12.099Z,1.83
2023-05-18T01:23:35.963Z,1.55
2023-05-18T01:26:17.150Z,1.70
2023-05-18T01:28:48.423Z,1.50
2023-05-18T01:31:16.489Z,1.38
2023-05-18T01:33:44.285Z,1.50
2023-05-18T01:36:11.390Z,1.92
2023-05-18T01:38:39.401Z,1.77
2023-05-18T01:41:07.049Z,1.67
2023-05-18T01:43:36.389Z,2.00
2023-05-18T01:46:28.277Z,1.40
2023-05-18T01:48:59.931Z,2.28
2023-05-18T01:51:32.058Z,1.70
2023-05-18T01:54:06.328Z,1.70
2023-05-18T01:56:34.479Z,1.67
2023-05-18T01:59:01.538Z,1.90
2023-05-18T02:01:28.359Z,1.80
2023-05-18T02:03:55.182Z,1.60
2023-05-18T02:06:21.783Z,1.65
2023-05-18T02:08:48.683Z,1.73
2023-05-18T02:11:15.132Z,1.70
2023-05-18T02:13:41.691Z,1.65
2023-05-18T02:16:08.481Z,1.70
2023-05-18T02:18:36.377Z,1.65
2023-05-18T02:21:04.089Z,2.20
2023-05-18T02:23:31.251Z,2.03
2023-05-18T02:25:57.974Z,1.38
2023-05-18T02:28:24.496Z,1.65
2023-05-18T02:30:51.088Z,2.03
2023-05-18T02:33:26.021Z,1.80
2023-05-18T02:35:53.329Z,1.55
2023-05-18T02:38:19.859Z,1.67
2023-05-18T02:40:46.335Z,1.95
2023-05-18T02:43:13.558Z,1.45
2023-05-18T02:45:40.042Z,1.50
2023-05-18T02:48:06.606Z,1.60
2023-05-18T02:50:33.086Z,1.85
2023-05-18T02:52:59.513Z,1.40
2023-05-18T02:55:25.933Z,1.80
2023-05-18T02:57:57.074Z,1.80
2023-05-18T03:00:24.061Z,1.70
2023-05-18T03:02:50.628Z,1.60
2023-05-18T03:05:23.687Z,1.70
2023-05-18T03:07:54.335Z,1.50
2023-05-18T03:10:21.827Z,1.70
2023-05-18T03:12:48.632Z,1.50
2023-05-18T03:15:16.244Z,1.40
2023-05-18T03:17:43.214Z,1.75
2023-05-18T03:20:11.401Z,1.88
2023-05-18T03:22:38.431Z,1.60
2023-05-18T03:25:05.999Z,1.50
2023-05-18T03:27:32.596Z,1.45
2023-05-18T03:29:59.178Z,1.45
2023-05-18T03:32:25.847Z,1.33
2023-05-18T03:34:53.143Z,1.70
2023-05-18T03:37:20.086Z,1.80
2023-05-18T03:39:46.553Z,1.50
2023-05-18T03:42:13.158Z,1.67
2023-05-18T03:44:39.717Z,1.60
2023-05-18T03:47:06.616Z,1.48
2023-05-18T03:49:34.303Z,1.52
2023-05-18T03:52:00.784Z,1.48
2023-05-18T03:54:27.360Z,2.10
2023-05-18T03:56:53.924Z,1.63
2023-05-18T03:59:20.416Z,1.42
2023-05-18T04:01:46.889Z,1.60
2023-05-18T04:04:18.359Z,1.45
2023-05-18T04:06:46.767Z,1.40
2023-05-18T04:09:17.203Z,2.08
2023-05-18T04:11:44.406Z,1.67
2023-05-18T04:14:11.864Z,1.60
2023-05-18T04:16:38.410Z,1.98
2023-05-18T04:19:08.034Z,1.40
2023-05-18T04:21:36.272Z,1.60
2023-05-18T04:24:08.994Z,1.33
2023-05-18T04:26:38.566Z,1.58
2023-05-18T04:29:07.676Z,1.60
2023-05-18T04:31:35.664Z,1.58
2023-05-18T04:34:02.233Z,1.42
2023-05-18T04:36:30.858Z,1.60
2023-05-18T04:38:58.683Z,1.80
2023-05-18T04:41:25.951Z,2.00
2023-05-18T04:43:53.703Z,1.40
2023-05-18T04:46:22.286Z,1.58
2023-05-18T04:48:53.116Z,1.45
2023-05-18T04:51:21.451Z,1.58
2023-05-18T04:53:50.168Z,1.83
2023-05-18T04:56:17.446Z,1.92
2023-05-18T04:58:48.164Z,1.58
2023-05-18T05:01:15.679Z,1.70
2023-05-18T05:03:42.797Z,1.63
2023-05-18T05:06:09.912Z,1.42
2023-05-18T05:08:37.873Z,1.75
2023-05-18T05:11:04.521Z,1.42
2023-05-18T05:13:30.999Z,1.52
2023-05-18T05:15:57.458Z,1.92
2023-05-18T05:18:24.085Z,1.63
2023-05-18T05:20:50.830Z,1.52
2023-05-18T05:23:17.310Z,1.63
2023-05-18T05:25:43.797Z,1.90
2023-05-18T05:28:10.365Z,1.55
2023-05-18T05:30:37.013Z,1.50
2023-05-18T05:33:03.609Z,1.42
2023-05-18T05:35:32.583Z,1.52
2023-05-18T05:37:59.948Z,1.80
2023-05-18T05:40:26.783Z,1.77
2023-05-18T05:42:53.259Z,1.80
2023-05-18T05:45:19.738Z,1.42
2023-05-18T05:47:46.421Z,1.67
2023-05-18T05:50:12.978Z,1.60
2023-05-18T05:52:39.539Z,1.67
2023-05-18T05:55:06.548Z,1.55
2023-05-18T05:57:33.044Z,1.63
2023-05-18T05:59:59.550Z,1.40
2023-05-18T06:02:26.202Z,1.52
2023-05-18T06:04:52.917Z,1.63
2023-05-18T06:07:19.343Z,1.58
2023-05-18T06:09:45.814Z,1.48
2023-05-18T06:12:12.280Z,1.50
2023-05-18T06:14:38.801Z,1.50
2023-05-18T06:17:05.688Z,1.52
2023-05-18T06:19:32.390Z,1.25
2023-05-18T06:21:58.838Z,1.30
2023-05-18T06:24:25.663Z,1.42
2023-05-18T06:26:52.143Z,1.27
2023-05-18T06:29:18.612Z,1.23
2023-05-18T06:31:45.307Z,1.35
2023-05-18T06:34:11.841Z,1.33
2023-05-18T06:36:38.981Z,1.20
2023-05-18T06:39:05.691Z,1.10
2023-05-18T06:41:32.192Z,1.10
2023-05-18T06:44:00.410Z,0.82
2023-05-18T06:46:27.248Z,1.17
2023-05-18T06:48:53.875Z,1.02
2023-05-18T06:51:20.412Z,0.85
2023-05-18T06:53:46.906Z,1.42
2023-05-18T06:56:13.406Z,1.08
2023-05-18T06:58:41.472Z,1.08
2023-05-18T07:01:08.277Z,1.00
2023-05-18T07:03:35.606Z,1.17
2023-05-18T07:06:04.499Z,1.38
2023-05-18T07:08:31.933Z,1.17
2023-05-18T07:10:59.334Z,1.05
2023-05-18T07:13:25.898Z,1.30
2023-05-18T07:15:52.577Z,1.30
2023-05-18T07:18:19.272Z,1.00
2023-05-18T07:20:45.844Z,1.20
2023-05-18T07:23:13.112Z,1.20
2023-05-18T07:25:39.718Z,1.00
2023-05-18T07:28:06.345Z,1.17
2023-05-18T07:30:32.815Z,0.90
2023-05-18T07:32:59.432Z,1.23
2023-05-18T07:35:26.921Z,1.42
2023-05-18T07:37:55.320Z,1.50
2023-05-18T07:40:21.921Z,1.08
2023-05-18T07:42:48.468Z,1.15
2023-05-18T07:45:14.963Z,2.13
2023-05-18T07:47:41.560Z,1.00
2023-05-18T07:50:08.766Z,1.40
2023-05-18T07:52:35.267Z,1.25
2023-05-18T07:55:01.729Z,1.13
2023-05-18T07:57:30.868Z,1.30
2023-05-18T07:59:57.310Z,1.13
2023-05-18T08:02:23.918Z,1.10
2023-05-18T08:04:50.587Z,1.13
2023-05-18T08:07:18.285Z,0.95
2023-05-18T08:09:44.975Z,0.98
2023-05-18T08:12:11.424Z,1.27
2023-05-18T08:14:37.937Z,1.05
2023-05-18T08:17:04.912Z,1.27
2023-05-18T08:19:31.911Z,1.17
2023-05-18T08:21:58.514Z,1.75
2023-05-18T08:24:25.052Z,1.10
2023-05-18T08:26:52.578Z,1.08
2023-05-18T08:29:19.161Z,1.35
2023-05-18T08:31:49.079Z,0.90
2023-05-18T08:34:16.203Z,1.35
2023-05-18T08:36:45.478Z,1.10
2023-05-18T08:39:12.639Z,1.55
2023-05-18T08:41:55.773Z,1.20
2023-05-18T08:44:26.477Z,1.30
2023-05-18T08:46:54.793Z,1.02
2023-05-18T08:49:21.920Z,1.17
2023-05-18T08:51:59.217Z,1.00
2023-05-18T08:54:26.300Z,1.48
2023-05-18T08:56:53.530Z,0.98
2023-05-18T08:59:24.547Z,1.02
2023-05-18T09:01:52.048Z,0.90
2023-05-18T09:04:19.593Z,1.40
2023-05-18T09:06:47.644Z,1.05
2023-05-18T09:09:15.245Z,2.13
2023-05-18T09:11:42.092Z,1.10
2023-05-18T09:14:08.598Z,1.10
2023-05-18T09:16:35.599Z,1.17
2023-05-18T09:19:02.440Z,1.35
2023-05-18T09:21:31.348Z,1.00
2023-05-18T09:24:00.425Z,1.20
2023-05-18T09:26:27.544Z,1.40
2023-05-18T09:28:54.731Z,1.30
2023-05-18T09:31:24.352Z,1.08
2023-05-18T09:33:51.644Z,1.10
2023-05-18T09:36:29.064Z,0.95
2023-05-18T09:38:55.673Z,1.10
2023-05-18T09:41:27.080Z,1.05
2023-05-18T09:43:54.533Z,1.00
2023-05-18T09:46:22.077Z,1.02
2023-05-18T09:48:54.724Z,0.90
2023-05-18T09:51:25.052Z,1.42
2023-05-18T09:53:56.487Z,1.20
2023-05-18T09:56:27.283Z,0.77
2023-05-18T09:58:54.191Z,1.25
2023-05-18T10:01:20.772Z,1.33
2023-05-18T10:03:49.591Z,1.05
2023-05-18T10:06:20.135Z,1.10
2023-05-18T10:08:46.893Z,1.13
2023-05-18T10:11:17.207Z,1.10
2023-05-18T10:13:46.968Z,0.95
2023-05-18T10:16:15.464Z,0.90
2023-05-18T10:18:42.293Z,0.93
2023-05-18T10:21:09.500Z,0.95
2023-05-18T10:23:37.045Z,1.10
2023-05-18T10:26:07.746Z,1.23
2023-05-18T10:28:41.368Z,0.93
2023-05-18T10:31:08.667Z,1.20
2023-05-18T10:33:37.112Z,1.00
2023-05-18T10:36:05.186Z,0.80
2023-05-18T10:38:33.122Z,0.93
2023-05-18T10:41:00.618Z,1.25
2023-05-18T10:43:28.454Z,0.80
2023-05-18T10:46:05.539Z,1.05
2023-05-18T10:48:32.157Z,1.25
2023-05-18T10:50:59.093Z,0.93
2023-05-18T10:53:27.187Z,1.42
2023-05-18T10:55:54.289Z,1.00
2023-05-18T10:58:23.694Z,1.10
2023-05-18T11:00:53.275Z,1.02
2023-05-18T11:03:20.669Z,1.02
2023-05-18T11:05:55.033Z,0.77
2023-05-18T11:08:27.061Z,0.75
2023-05-18T11:11:07.328Z,0.90
2023-05-18T11:13:43.424Z,1.13
2023-05-18T11:16:10.021Z,1.00
2023-05-18T11:18:41.184Z,0.82
2023-05-18T11:21:23.946Z,1.20
2023-05-18T11:24:23.345Z,0.80
2023-05-18T11:26:54.147Z,0.70
2023-05-18T11:29:30.930Z,0.90
2023-05-18T11:31:57.579Z,0.90
2023-05-18T11:34:45.511Z,1.10
2023-05-18T11:37:16.751Z,0.95
2023-05-18T11:40:00.390Z,0.95
2023-05-18T11:42:33.908Z,0.93
2023-05-18T11:45:26.910Z,0.90
2023-05-18T11:48:02.347Z,0.90
2023-05-18T11:50:31.025Z,1.30
2023-05-18T11:52:59.554Z,1.00
2023-05-18T11:55:38.416Z,1.00
2023-05-18T11:58:07.663Z,0.98
2023-05-18T12:00:38.009Z,1.13
2023-05-18T12:03:06.163Z,0.82
2023-05-18T12:05:35.276Z,1.50
2023-05-18T12:08:02.307Z,1.30
2023-05-18T12:10:29.875Z,1.13
2023-05-18T12:12:57.711Z,1.00
2023-05-18T12:15:25.060Z,0.82
2023-05-18T12:17:52.102Z,1.00
2023-05-18T12:20:20.619Z,0.90
2023-05-18T12:22:53.621Z,1.02
2023-05-18T12:25:22.021Z,0.90
2023-05-18T12:27:49.292Z,0.88
2023-05-18T12:30:16.163Z,0.82
2023-05-18T12:32:48.870Z,1.40
2023-05-18T12:35:15.526Z,0.77
2023-05-18T12:37:46.434Z,0.60
2023-05-18T12:40:18.129Z,0.93
2023-05-18T12:42:53.617Z,1.00
2023-05-18T12:45:23.854Z,1.00
2023-05-18T12:47:55.297Z,1.00
2023-05-18T12:50:24.002Z,1.20
2023-05-18T12:52:51.073Z,0.90
2023-05-18T12:55:21.618Z,0.70
2023-05-18T12:58:05.683Z,0.68
2023-05-18T13:00:37.075Z,0.80
2023-05-18T13:03:15.191Z,0.70
2023-05-18T13:05:44.916Z,1.00
2023-05-18T13:08:22.136Z,0.85
2023-05-18T13:10:58.092Z,0.85
2023-05-18T13:13:28.575Z,0.65
2023-05-18T13:15:55.065Z,0.82
2023-05-18T13:18:21.574Z,0.80
2023-05-18T13:20:53.471Z,0.90
2023-05-18T13:23:22.112Z,0.63
2023-05-18T13:28:17.267Z,1.23
2023-05-18T13:30:45.210Z,0.85
2023-05-18T13:33:12.318Z,0.90
2023-05-18T13:35:44.462Z,1.00
2023-05-18T13:38:13.239Z,0.90
2023-05-18T13:40:40.905Z,0.75
2023-05-18T13:43:07.603Z,0.60
2023-05-18T13:45:37.583Z,0.80
2023-05-18T13:48:10.123Z,0.95
2023-05-18T13:50:38.033Z,0.90
2023-05-18T13:53:04.683Z,0.73
2023-05-18T13:55:31.628Z,0.95
2023-05-18T13:57:58.258Z,0.88
2023-05-18T14:00:25.065Z,1.10
2023-05-18T14:02:53.221Z,0.75
2023-05-18T14:05:20.120Z,1.25
2023-05-18T14:07:46.656Z,0.73
2023-05-18T14:10:13.659Z,1.05
2023-05-18T14:12:42.497Z,0.90
2023-05-18T14:15:09.646Z,0.90
2023-05-18T14:17:36.230Z,0.80
2023-05-18T14:20:04.977Z,0.95
2023-05-18T14:22:31.614Z,1.23
2023-05-18T14:24:58.117Z,0.85
2023-05-18T14:27:24.578Z,0.70
2023-05-18T14:29:51.229Z,0.75
2023-05-18T14:32:18.156Z,0.82
2023-05-18T14:34:44.649Z,0.80
2023-05-18T14:37:11.079Z,0.90
2023-05-18T14:39:37.891Z,0.80
2023-05-18T14:42:05.315Z,0.80
2023-05-18T14:44:31.909Z,1.55
2023-05-18T14:46:58.464Z,3.42
2023-05-18T14:49:24.951Z,2.72
2023-05-18T14:51:51.518Z,2.00
2023-05-18T14:54:19.046Z,1.95
2023-05-18T14:56:45.660Z,2.00
2023-05-18T14:59:12.136Z,1.13
2023-05-18T15:01:38.670Z,0.75
2023-05-18T15:04:05.426Z,1.05
2023-05-18T15:06:33.207Z,1.45
2023-05-18T15:08:59.714Z,1.65
2023-05-18T15:11:26.390Z,1.20
2023-05-18T15:13:52.905Z,1.00
2023-05-18T15:16:19.942Z,0.80
2023-05-18T15:18:47.090Z,1.10
2023-05-18T15:21:13.608Z,0.80
2023-05-18T15:23:40.186Z,0.95
2023-05-18T15:26:08.901Z,1.02
2023-05-18T15:28:35.834Z,1.23
2023-05-18T15:31:02.364Z,1.10
2023-05-18T15:33:28.889Z,1.10
2023-05-18T15:35:55.581Z,1.70
2023-05-18T15:38:22.062Z,1.90
2023-05-18T15:40:50.302Z,3.13
2023-05-18T15:43:16.897Z,1.05
2023-05-18T15:45:43.418Z,1.08
2023-05-18T15:48:09.955Z,1.25
2023-05-18T15:50:36.451Z,1.00
2023-05-18T15:53:02.910Z,0.80
2023-05-18T15:55:29.351Z,1.40
2023-05-18T15:57:55.877Z,1.13
2023-05-18T16:00:23.755Z,1.20
2023-05-18T16:02:50.449Z,1.42
2023-05-18T16:05:18.266Z,1.15
2023-05-18T16:07:46.222Z,1.00
2023-05-18T16:10:14.468Z,0.90
2023-05-18T16:12:41.159Z,1.00
2023-05-18T16:15:08.195Z,0.90
2023-05-18T16:17:34.866Z,1.05
2023-05-18T16:20:03.565Z,2.20
2023-05-18T16:22:30.611Z,1.73
2023-05-18T16:24:58.764Z,1.20
2023-05-18T16:27:25.280Z,1.20
2023-05-18T16:29:51.770Z,1.42
2023-05-18T16:32:18.865Z,2.88
2023-05-18T16:34:45.338Z,1.10
2023-05-18T16:37:11.934Z,2.65
2023-05-18T16:39:38.378Z,1.60
2023-05-18T16:42:05.151Z,2.42
2023-05-18T16:44:32.884Z,2.17
2023-05-18T16:49:39.839Z,1.40
2023-05-18T16:52:06.739Z,2.20
2023-05-18T16:54:33.289Z,2.20
2023-05-18T16:56:59.835Z,1.27
2023-05-18T16:59:26.393Z,1.20
2023-05-18T17:01:53.031Z,0.90
2023-05-18T17:04:19.656Z,0.80
2023-05-18T17:06:46.254Z,1.10
2023-05-18T17:09:13.338Z,0.90
2023-05-18T17:11:39.913Z,0.90
2023-05-18T17:14:06.448Z,1.27
2023-05-18T17:16:38.799Z,0.90
2023-05-18T17:19:05.434Z,0.80
2023-05-18T17:21:31.911Z,0.85
2023-05-18T17:23:58.415Z,0.90
2023-05-18T17:26:25.834Z,1.20
2023-05-18T17:28:53.161Z,0.80
2023-05-18T17:31:19.660Z,0.90
2023-05-18T17:33:47.414Z,0.80
2023-05-18T17:36:17.096Z,0.90
2023-05-18T17:38:47.063Z,0.90
2023-05-18T17:41:13.897Z,1.00
2023-05-18T17:43:40.440Z,1.17
2023-05-18T17:46:07.125Z,1.15
2023-05-18T17:48:33.745Z,1.00
2023-05-18T17:51:00.373Z,1.20
2023-05-18T17:53:26.884Z,1.40
2023-05-18T17:55:53.451Z,1.20
2023-05-18T17:58:20.011Z,1.60
2023-05-18T18:00:46.743Z,1.15
2023-05-18T18:03:14.497Z,1.08
2023-05-18T18:05:41.132Z,1.40
2023-05-18T18:08:08.037Z,1.23
2023-05-18T18:10:34.951Z,1.45
2023-05-18T18:13:01.490Z,1.20
2023-05-18T18:15:29.118Z,1.30
2023-05-18T18:17:56.644Z,1.63
2023-05-18T18:20:23.454Z,1.40
2023-05-18T18:22:49.999Z,1.45
2023-05-18T18:25:16.626Z,1.88
2023-05-18T18:27:43.625Z,1.63
2023-05-18T18:30:10.749Z,1.35
2023-05-18T18:32:37.264Z,1.88
2023-05-18T18:35:04.326Z,1.20
2023-05-18T18:37:31.002Z,1.50
2023-05-18T18:39:57.655Z,1.58
2023-05-18T18:42:24.201Z,1.40
2023-05-18T18:44:52.941Z,1.48
2023-05-18T18:47:19.532Z,1.92
2023-05-18T18:49:46.057Z,2.35
2023-05-18T18:52:13.874Z,2.00
2023-05-18T18:54:41.160Z,1.83
2023-05-18T18:57:07.992Z,1.50
2023-05-18T18:59:37.628Z,1.45
2023-05-18T19:02:04.386Z,2.13
2023-05-18T19:04:31.094Z,1.85
2023-05-18T19:07:01.688Z,1.80
2023-05-18T19:09:32.554Z,1.67
2023-05-18T19:11:59.440Z,2.20
2023-05-18T19:14:26.015Z,2.30
2023-05-18T19:16:52.651Z,2.30
2023-05-18T19:19:19.176Z,3.00
2023-05-18T19:21:46.934Z,4.07
2023-05-18T19:24:13.454Z,5.97
2023-05-18T19:26:40.019Z,6.95
2023-05-18T19:29:06.613Z,7.30
2023-05-18T19:31:34.479Z,5.03
2023-05-18T19:34:01.195Z,3.40
2023-05-18T19:36:27.818Z,2.47
2023-05-18T19:38:55.719Z,2.15
2023-05-18T19:41:24.469Z,2.15
2023-05-18T19:43:51.192Z,2.50
2023-05-18T19:46:19.283Z,2.25
2023-05-18T19:48:46.040Z,2.13
2023-05-18T19:51:12.561Z,1.83
2023-05-18T19:53:39.116Z,1.70
2023-05-18T19:56:06.121Z,1.90
2023-05-18T19:58:32.622Z,1.80
2023-05-18T20:00:59.376Z,2.85
2023-05-18T20:03:26.446Z,2.60
2023-05-18T20:05:52.968Z,2.63
2023-05-18T20:08:20.095Z,1.98
2023-05-18T20:10:46.728Z,1.95
2023-05-18T20:13:13.532Z,1.92
2023-05-18T20:15:39.966Z,2.10
2023-05-18T20:18:07.228Z,1.77
2023-05-18T20:20:36.023Z,1.92
2023-05-18T20:28:03.257Z,1.80
2023-05-18T20:30:30.711Z,1.98
2023-05-18T20:33:00.333Z,2.03
2023-05-18T20:35:26.817Z,1.95
2023-05-18T20:37:59.540Z,2.22
2023-05-18T20:40:27.616Z,1.98
2023-05-18T20:42:54.445Z,2.05
2023-05-18T20:45:22.609Z,2.47
2023-05-18T20:47:52.141Z,2.05
2023-05-18T20:50:19.641Z,1.88
2023-05-18T20:52:46.967Z,2.10
2023-05-18T20:55:14.615Z,2.15
2023-05-18T20:57:41.839Z,2.47
2023-05-18T21:00:09.294Z,2.38
2023-05-18T21:02:36.887Z,2.25
2023-05-18T21:05:04.745Z,2.22
2023-05-18T21:07:34.619Z,2.70
2023-05-18T21:10:02.350Z,2.33
2023-05-18T21:12:28.852Z,2.53
2023-05-18T21:14:55.404Z,2.40
2023-05-18T21:17:22.093Z,2.30
2023-05-18T21:19:49.583Z,2.47
2023-05-18T21:22:16.147Z,2.63
2023-05-18T21:24:42.639Z,2.28
2023-05-18T21:27:09.104Z,2.55
2023-05-18T21:29:35.710Z,2.30
2023-05-18T21:32:02.555Z,2.40
2023-05-18T21:34:29.153Z,2.60
2023-05-18T21:36:56.242Z,2.58
2023-05-18T21:39:22.811Z,2.65
2023-05-18T21:41:49.311Z,2.35
2023-05-18T21:44:15.778Z,2.50
2023-05-18T21:46:42.702Z,2.50
2023-05-18T21:49:09.398Z,2.55
2023-05-18T21:51:36.484Z,2.55
2023-05-18T21:54:03.962Z,2.40
2023-05-18T21:56:31.019Z,2.67
2023-05-18T21:58:57.518Z,2.40
2023-05-18T22:01:24.135Z,2.50
2023-05-18T22:03:51.468Z,2.08
2023-05-18T22:06:18.043Z,2.30
2023-05-18T22:08:44.935Z,2.55
2023-05-18T22:11:11.926Z,2.42
2023-05-18T22:13:38.416Z,2.40
2023-05-18T22:16:05.614Z,2.15
2023-05-18T22:18:32.160Z,2.67
2023-05-18T22:20:59.201Z,2.47
2023-05-18T22:23:26.488Z,2.70
2023-05-18T22:25:53.220Z,2.75
2023-05-18T22:28:23.048Z,2.67
2023-05-18T22:30:53.042Z,2.33
2023-05-18T22:33:20.962Z,2.22
2023-05-18T22:35:50.487Z,2.13
2023-05-18T22:38:17.690Z,2.20
2023-05-18T22:40:45.327Z,2.00
2023-05-18T22:43:12.034Z,1.90
2023-05-18T22:45:38.649Z,2.55
2023-05-18T22:48:05.320Z,1.98
2023-05-18T22:50:31.999Z,1.77
2023-05-18T22:52:58.687Z,1.60
2023-05-18T22:55:25.177Z,1.52
2023-05-18T22:57:51.711Z,2.00
2023-05-18T23:00:18.399Z,1.60
2023-05-18T23:02:44.886Z,1.50
2023-05-18T23:05:11.548Z,1.80
2023-05-18T23:07:38.449Z,2.00
2023-05-18T23:10:05.880Z,1.67
2023-05-18T23:12:33.110Z,1.60
2023-05-18T23:15:03.754Z,1.65
2023-05-18T23:17:31.283Z,1.73
2023-05-18T23:19:59.204Z,1.90
2023-05-18T23:22:26.218Z,1.50
2023-05-18T23:24:52.757Z,1.52
2023-05-18T23:27:19.672Z,1.63
2023-05-18T23:29:46.357Z,1.50
2023-05-18T23:32:12.972Z,1.45
2023-05-18T23:34:39.629Z,1.70
2023-05-18T23:37:12.609Z,1.60
2023-05-18T23:39:43.948Z,1.25
2023-05-18T23:42:11.759Z,1.65
2023-05-18T23:44:38.658Z,1.40
2023-05-18T23:47:05.452Z,1.95
2023-05-18T23:49:32.385Z,1.70
2023-05-18T23:52:02.439Z,1.38
2023-05-18T23:54:29.410Z,1.80
2023-05-18T23:56:56.846Z,1.70
2023-05-18T23:59:23.893Z,1.80
